Time;durP1;ratioP1;P1;durP2;ratioP2;P2;SDS_P1;SDS_P2;PMS_P1;PMS_P2;Temp;Humidity;BMP_temperature;BMP_pressure;BME280_temperature;BME280_humidity;BME280_pressure;Samples;Min_cycle;Max_cycle;Signal;HPM_P1;HPM_P2
2022/12/25 00:00:00;;;;;;;;;;;9.00;99.90;;;;;;5025897;28;19948;-82
2022/12/25 00:02:28;;;;;;;;;;;9.00;99.90;;;;;;5027597;28;20047;-82
2022/12/25 00:04:55;;;;;;;;;;;9.10;99.90;;;;;;5027865;28;19929;-83
2022/12/25 00:07:21;;;;;;;;;;;9.10;99.90;;;;;;5036180;28;19929;-82
2022/12/25 00:09:48;;;;;;;;;;;9.20;99.90;;;;;;5034612;28;19933;-81
2022/12/25 00:12:15;;;;;;;;;;;9.30;99.90;;;;;;5028659;28;19925;-81
2022/12/25 00:14:41;;;;;;;;;;;9.30;99.90;;;;;;5026559;28;19936;-81
2022/12/25 00:17:10;;;;;;;;;;;9.40;99.90;;;;;;5027363;28;19956;-81
2022/12/25 00:19:36;;;;;;;;;;;9.40;99.90;;;;;;5026181;28;20043;-82
2022/12/25 00:22:03;;;;;;;;;;;9.40;99.90;;;;;;5028408;28;20487;-81
2022/12/25 00:24:30;;;;;;;;;;;9.50;99.90;;;;;;5029270;28;19976;-82
2022/12/25 00:26:57;;;;;;;;;;;9.50;99.90;;;;;;5026298;28;19940;-81
2022/12/25 00:29:23;;;;;;;;;;;9.50;99.90;;;;;;5006500;28;19933;-82
2022/12/25 00:31:50;;;;;;;;;;;9.60;99.90;;;;;;5027697;28;19925;-82
2022/12/25 00:34:18;;;;;;;;;;;9.50;99.90;;;;;;5035817;28;19945;-82
2022/12/25 00:36:45;;;;;;;;;;;9.60;99.90;;;;;;5035858;28;19991;-82
2022/12/25 00:39:12;;;;;;;;;;;9.60;99.90;;;;;;5035925;28;19959;-82
2022/12/25 00:44:23;;;;;;;;;;;9.60;99.90;;;;;;5035922;28;19932;-82
2022/12/25 00:46:50;;;;;;;;;;;9.60;99.90;;;;;;5038295;28;19925;-82
2022/12/25 00:49:18;;;;;;;;;;;10.50;99.90;;;;;;5037449;28;19929;-82
2022/12/25 00:51:44;;;;;;;;;;;9.70;99.90;;;;;;5040921;28;20023;-82
2022/12/25 00:54:11;;;;;;;;;;;9.70;99.90;;;;;;5028311;28;19986;-81
2022/12/25 00:56:38;;;;;;;;;;;9.70;99.90;;;;;;5041635;28;19929;-82
2022/12/25 00:59:05;;;;;;;;;;;9.70;99.90;;;;;;5043598;28;20038;-81
2022/12/25 01:01:32;;;;;;;;;;;9.70;99.90;;;;;;5043168;28;19929;-81
2022/12/25 01:04:01;;;;;;;;;;;9.70;99.90;;;;;;5028102;28;20080;-81
2022/12/25 01:06:30;;;;;;;;;;;9.80;99.90;;;;;;5034587;28;20047;-81
2022/12/25 01:11:41;;;;;;;;;;;9.80;99.90;;;;;;5013195;28;20014;-81
2022/12/25 01:14:08;;;;;;;;;;;9.80;99.90;;;;;;5027099;28;19936;-81
2022/12/25 01:16:35;;;;;;;;;;;9.80;99.90;;;;;;5025566;28;20027;-82
2022/12/25 01:19:02;;;;;;;;;;;9.80;99.90;;;;;;5023601;28;19933;-82
2022/12/25 01:21:30;;;;;;;;;;;9.90;99.90;;;;;;5027153;28;19929;-81
2022/12/25 01:23:58;;;;;;;;;;;9.90;99.90;;;;;;5006053;28;20023;-82
2022/12/25 01:26:28;;;;;;;;;;;9.90;99.90;;;;;;5028630;28;19929;-81
2022/12/25 01:28:54;;;;;;;;;;;9.90;99.90;;;;;;5025587;28;20659;-83
2022/12/25 01:31:22;;;;;;;;;;;9.90;99.90;;;;;;5029475;28;20351;-82
2022/12/25 01:33:49;;;;;;;;;;;9.90;99.90;;;;;;5029776;28;19972;-83
2022/12/25 01:36:17;;;;;;;;;;;9.90;99.90;;;;;;5029893;28;19932;-80
2022/12/25 01:38:45;;;;;;;;;;;9.90;99.90;;;;;;5029063;28;19977;-81
2022/12/25 01:41:12;;;;;;;;;;;9.90;99.90;;;;;;5032910;28;19933;-82
2022/12/25 01:43:54;;;;;;;;;;;9.80;99.90;;;;;;5029726;28;19929;-82
2022/12/25 01:46:21;;;;;;;;;;;9.80;99.90;;;;;;5025963;28;19933;-82
2022/12/25 01:48:48;;;;;;;;;;;9.80;99.90;;;;;;5027746;28;19983;-81
2022/12/25 01:51:20;;;;;;;;;;;9.70;99.90;;;;;;5030366;28;20306;-82
2022/12/25 01:53:49;;;;;;;;;;;9.70;99.90;;;;;;5029570;28;21003;-82
2022/12/25 01:56:15;;;;;;;;;;;9.80;99.90;;;;;;5030247;28;20025;-82
2022/12/25 01:58:42;;;;;;;;;;;9.90;99.90;;;;;;5029074;28;19960;-82
2022/12/25 02:01:17;;;;;;;;;;;9.90;99.90;;;;;;5033409;28;19925;-82
2022/12/25 02:03:44;;;;;;;;;;;9.90;99.90;;;;;;5030775;28;19933;-82
2022/12/25 02:06:11;;;;;;;;;;;9.90;99.90;;;;;;5016181;28;20442;-82
2022/12/25 02:08:38;;;;;;;;;;;9.90;99.90;;;;;;5032579;28;19929;-82
2022/12/25 02:11:55;;;;;;;;;;;9.90;99.90;;;;;;5032423;28;19933;-81
2022/12/25 02:13:55;;;;;;;;;;;9.90;99.90;;;;;;5038538;28;19917;-82
2022/12/25 02:16:25;;;;;;;;;;;10.00;99.90;;;;;;5038033;28;19933;-82
2022/12/25 02:18:53;;;;;;;;;;;10.00;99.90;;;;;;5039202;28;19964;-81
2022/12/25 02:21:44;;;;;;;;;;;10.10;99.90;;;;;;5039603;28;19955;-82
2022/12/25 02:24:24;;;;;;;;;;;10.10;99.90;;;;;;5032900;28;19944;-82
2022/12/25 02:26:58;;;;;;;;;;;10.20;99.90;;;;;;5025148;28;19933;-81
2022/12/25 02:29:30;;;;;;;;;;;10.10;99.90;;;;;;5019925;28;19925;-81
2022/12/25 02:31:59;;;;;;;;;;;10.20;99.90;;;;;;5024225;28;19940;-81
2022/12/25 02:34:28;;;;;;;;;;;10.20;99.90;;;;;;5024945;28;19926;-82
2022/12/25 02:36:57;;;;;;;;;;;10.30;99.90;;;;;;5022687;28;19925;-82
2022/12/25 02:42:12;;;;;;;;;;;10.30;99.90;;;;;;5020568;28;20044;-82
2022/12/25 03:07:10;;;;;;;;;;;10.40;99.90;;;;;;5026226;28;19925;-82
2022/12/25 03:12:28;;;;;;;;;;;10.40;99.90;;;;;;5040551;28;20435;-82
2022/12/25 03:17:40;;;;;;;;;;;10.40;99.90;;;;;;5026691;28;19929;-82
2022/12/25 03:28:24;;;;;;;;;;;10.40;99.90;;;;;;5024851;28;20553;-82
2022/12/25 03:31:12;;;;;;;;;;;10.40;99.90;;;;;;5022217;28;19929;-82
2022/12/25 03:35:21;;;;;;;;;;;10.40;99.90;;;;;;5026020;28;19925;-83
2022/12/25 03:36:37;;;;;;;;;;;10.40;99.90;;;;;;5026386;28;19939;-83
2022/12/25 04:37:08;;;;;;;;;;;10.30;99.90;;;;;;5018055;28;19991;-77
2022/12/25 04:39:36;;;;;;;;;;;10.40;99.90;;;;;;5018101;28;19933;-76
2022/12/25 04:42:03;;;;;;;;;;;10.40;99.90;;;;;;5018474;28;20329;-76
2022/12/25 04:44:29;;;;;;;;;;;10.40;99.90;;;;;;5017532;28;20578;-75
2022/12/25 04:46:56;;;;;;;;;;;10.50;99.90;;;;;;5017032;28;19933;-77
2022/12/25 04:49:23;;;;;;;;;;;10.50;99.90;;;;;;5011414;28;19933;-76
2022/12/25 04:51:50;;;;;;;;;;;10.50;99.90;;;;;;5010717;28;19929;-76
2022/12/25 04:54:16;;;;;;;;;;;10.50;99.90;;;;;;5011478;28;19933;-77
2022/12/25 04:56:44;;;;;;;;;;;10.40;99.90;;;;;;4994549;28;20321;-75
2022/12/25 04:59:11;;;;;;;;;;;10.40;99.90;;;;;;5011015;28;19940;-76
2022/12/25 05:01:38;;;;;;;;;;;10.30;99.90;;;;;;5011413;28;20315;-77
2022/12/25 05:04:05;;;;;;;;;;;10.30;99.90;;;;;;5015296;28;19936;-77
2022/12/25 05:06:32;;;;;;;;;;;10.90;99.90;;;;;;5013344;28;20255;-78
2022/12/25 05:08:58;;;;;;;;;;;10.30;99.90;;;;;;5014282;28;19940;-76
2022/12/25 05:11:26;;;;;;;;;;;10.40;99.90;;;;;;5012753;28;19933;-75
2022/12/25 05:13:54;;;;;;;;;;;10.40;99.90;;;;;;5013367;28;20324;-78
2022/12/25 05:16:21;;;;;;;;;;;10.40;99.90;;;;;;5013629;28;20024;-78
2022/12/25 05:18:48;;;;;;;;;;;10.50;99.90;;;;;;5019691;28;19936;-76
2022/12/25 05:21:15;;;;;;;;;;;11.50;99.90;;;;;;5021532;28;19933;-76
2022/12/25 05:23:47;;;;;;;;;;;10.50;99.90;;;;;;5022436;28;19937;-75
2022/12/25 05:26:14;;;;;;;;;;;10.60;99.90;;;;;;5021665;28;19940;-76
2022/12/25 05:28:41;;;;;;;;;;;10.60;99.90;;;;;;5021968;28;19933;-77
2022/12/25 05:31:09;;;;;;;;;;;10.70;99.90;;;;;;5021145;28;19959;-76
2022/12/25 05:33:36;;;;;;;;;;;10.60;99.90;;;;;;5020553;28;20310;-76
2022/12/25 05:36:03;;;;;;;;;;;10.90;99.90;;;;;;5022603;28;20590;-76
2022/12/25 05:38:30;;;;;;;;;;;10.70;99.90;;;;;;5021156;28;20943;-75
2022/12/25 05:40:57;;;;;;;;;;;10.70;99.90;;;;;;5021002;28;19941;-76
2022/12/25 05:43:24;;;;;;;;;;;10.70;99.90;;;;;;5021092;28;20020;-75
2022/12/25 05:45:50;;;;;;;;;;;11.60;99.90;;;;;;5020576;28;19941;-75
2022/12/25 05:48:18;;;;;;;;;;;10.70;99.90;;;;;;5021942;28;20028;-76
2022/12/25 05:50:45;;;;;;;;;;;10.70;99.90;;;;;;5021302;28;19933;-76
2022/12/25 05:53:13;;;;;;;;;;;10.70;99.90;;;;;;5020863;28;19940;-77
2022/12/25 05:55:42;;;;;;;;;;;10.80;99.90;;;;;;5021593;28;19940;-76
2022/12/25 05:58:09;;;;;;;;;;;10.80;99.90;;;;;;5020451;28;20505;-76
2022/12/25 06:00:36;;;;;;;;;;;10.80;99.90;;;;;;5001724;28;19940;-76
2022/12/25 06:03:03;;;;;;;;;;;11.70;99.90;;;;;;5021996;28;19948;-76
2022/12/25 06:05:31;;;;;;;;;;;10.80;99.90;;;;;;5018413;28;19948;-76
2022/12/25 06:07:58;;;;;;;;;;;10.80;99.90;;;;;;5021198;28;19956;-76
2022/12/25 06:10:25;;;;;;;;;;;10.80;99.90;;;;;;5020495;28;19940;-77
2022/12/25 06:12:51;;;;;;;;;;;10.80;99.90;;;;;;5024224;28;19940;-77
2022/12/25 06:15:18;;;;;;;;;;;10.80;99.90;;;;;;5023535;28;19988;-77
2022/12/25 06:17:45;;;;;;;;;;;10.80;99.90;;;;;;5003604;28;20306;-77
2022/12/25 06:20:12;;;;;;;;;;;10.80;99.90;;;;;;5020569;28;19929;-77
2022/12/25 06:22:40;;;;;;;;;;;10.80;99.90;;;;;;5016510;28;19939;-77
2022/12/25 06:25:07;;;;;;;;;;;10.70;99.90;;;;;;5020620;28;21431;-77
2022/12/25 06:27:34;;;;;;;;;;;10.60;99.90;;;;;;5020087;28;19979;-77
2022/12/25 06:30:01;;;;;;;;;;;10.50;99.90;;;;;;5019612;28;19933;-77
2022/12/25 06:32:27;;;;;;;;;;;10.40;99.90;;;;;;5012647;28;20004;-77
2022/12/25 06:34:54;;;;;;;;;;;10.40;99.90;;;;;;5018564;28;19933;-77
2022/12/25 06:37:21;;;;;;;;;;;10.30;99.90;;;;;;5019184;28;19972;-77
2022/12/25 06:39:49;;;;;;;;;;;10.20;99.90;;;;;;5017861;28;20401;-77
2022/12/25 06:42:16;;;;;;;;;;;10.20;99.90;;;;;;5020917;28;19933;-77
2022/12/25 06:44:43;;;;;;;;;;;10.10;99.90;;;;;;5022880;28;19929;-77
2022/12/25 06:47:10;;;;;;;;;;;10.10;99.90;;;;;;5031154;28;19934;-76
2022/12/25 06:49:36;;;;;;;;;;;10.00;99.90;;;;;;5017645;28;19940;-74
2022/12/25 06:52:03;;;;;;;;;;;10.00;99.90;;;;;;5012010;28;19977;-76
2022/12/25 06:54:30;;;;;;;;;;;10.00;99.90;;;;;;5011338;28;19933;-75
2022/12/25 06:56:58;;;;;;;;;;;10.00;99.90;;;;;;5010059;28;19933;-75
2022/12/25 06:59:25;;;;;;;;;;;10.00;99.90;;;;;;5010121;28;19933;-75
2022/12/25 07:01:53;;;;;;;;;;;10.00;99.90;;;;;;5011061;28;19948;-74
2022/12/25 07:04:23;;;;;;;;;;;10.00;99.90;;;;;;5011491;28;19941;-75
2022/12/25 07:06:50;;;;;;;;;;;10.10;99.90;;;;;;5011003;28;19966;-74
2022/12/25 07:09:17;;;;;;;;;;;10.20;99.90;;;;;;5010401;28;21290;-75
2022/12/25 07:11:43;;;;;;;;;;;10.20;99.90;;;;;;5010333;28;19933;-76
2022/12/25 07:14:16;;;;;;;;;;;10.30;99.90;;;;;;5010930;28;19933;-75
2022/12/25 07:16:42;;;;;;;;;;;10.30;99.90;;;;;;5010197;28;19933;-76
2022/12/25 07:19:09;;;;;;;;;;;10.40;99.90;;;;;;5018633;28;19940;-75
2022/12/25 07:21:36;;;;;;;;;;;10.40;99.90;;;;;;5018918;28;20389;-75
2022/12/25 07:24:03;;;;;;;;;;;10.40;99.90;;;;;;5020349;28;19944;-76
2022/12/25 07:26:30;;;;;;;;;;;10.50;99.90;;;;;;5019281;28;20420;-75
2022/12/25 07:28:57;;;;;;;;;;;10.50;99.90;;;;;;5019567;28;19933;-75
2022/12/25 07:31:25;;;;;;;;;;;10.50;99.90;;;;;;5020108;28;19933;-76
2022/12/25 07:33:53;;;;;;;;;;;10.50;99.90;;;;;;5003093;28;19968;-75
2022/12/25 07:36:20;;;;;;;;;;;10.50;99.90;;;;;;5019573;28;20068;-75
2022/12/25 07:38:48;;;;;;;;;;;10.50;99.90;;;;;;5014699;28;19972;-75
2022/12/25 07:41:15;;;;;;;;;;;10.50;99.90;;;;;;5019112;28;20317;-76
2022/12/25 07:43:42;;;;;;;;;;;10.50;99.90;;;;;;5015889;28;19933;-76
2022/12/25 07:46:09;;;;;;;;;;;10.50;99.90;;;;;;5019340;28;20007;-76
2022/12/25 07:48:37;;;;;;;;;;;10.50;99.90;;;;;;5016785;28;20658;-77
2022/12/25 07:51:05;;;;;;;;;;;10.50;99.90;;;;;;5014651;28;19944;-77
2022/12/25 07:53:32;;;;;;;;;;;10.40;99.90;;;;;;5014846;28;19940;-77
2022/12/25 07:55:59;;;;;;;;;;;10.40;99.90;;;;;;5014453;28;19933;-75
2022/12/25 07:58:26;;;;;;;;;;;10.40;99.90;;;;;;5011696;28;19933;-76
2022/12/25 08:00:53;;;;;;;;;;;10.40;99.90;;;;;;5012997;28;20391;-76
2022/12/25 08:03:19;;;;;;;;;;;10.30;99.90;;;;;;5016972;28;19940;-76
2022/12/25 08:05:48;;;;;;;;;;;10.30;99.90;;;;;;5028869;28;19936;-77
2022/12/25 08:08:15;;;;;;;;;;;10.40;99.90;;;;;;5028617;28;19931;-76
2022/12/25 08:10:44;;;;;;;;;;;9.80;99.90;;;;;;5030409;28;19936;-76
2022/12/25 08:13:11;;;;;;;;;;;10.40;99.90;;;;;;5029886;28;20140;-76
2022/12/25 08:15:38;;;;;;;;;;;10.50;99.90;;;;;;5033780;28;19929;-76
2022/12/25 08:18:05;;;;;;;;;;;10.60;99.90;;;;;;5035393;28;19925;-76
2022/12/25 08:20:31;;;;;;;;;;;10.60;99.90;;;;;;5032528;28;20004;-77
2022/12/25 08:22:59;;;;;;;;;;;10.70;99.90;;;;;;5042758;28;19925;-76
2022/12/25 08:25:26;;;;;;;;;;;10.70;99.90;;;;;;5028984;28;19936;-76
2022/12/25 08:27:53;;;;;;;;;;;10.80;99.90;;;;;;5042633;28;19929;-77
2022/12/25 08:30:20;;;;;;;;;;;10.80;99.90;;;;;;5055494;28;20011;-76
2022/12/25 08:32:47;;;;;;;;;;;10.80;99.90;;;;;;5574083;22;19963;-76
2022/12/25 08:35:13;;;;;;;;;;;10.80;99.90;;;;;;5047811;28;19932;-76
2022/12/25 08:37:40;;;;;;;;;;;10.90;99.90;;;;;;5041359;28;20136;-76
2022/12/25 08:40:09;;;;;;;;;;;10.90;99.90;;;;;;5037270;28;19929;-77
2022/12/25 08:42:36;;;;;;;;;;;10.90;99.90;;;;;;5019356;28;20274;-76
2022/12/25 08:45:03;;;;;;;;;;;11.00;99.90;;;;;;5033891;28;19990;-78
2022/12/25 08:47:31;;;;;;;;;;;11.00;99.90;;;;;;5040632;28;19925;-77
2022/12/25 08:49:58;;;;;;;;;;;10.90;99.90;;;;;;5036343;28;20250;-76
2022/12/25 08:52:25;;;;;;;;;;;11.20;99.90;;;;;;5030222;28;19925;-76
2022/12/25 08:54:51;;;;;;;;;;;11.10;99.90;;;;;;5026911;28;19929;-76
2022/12/25 08:57:19;;;;;;;;;;;11.10;99.90;;;;;;5016696;28;19932;-75
2022/12/25 08:59:46;;;;;;;;;;;11.90;99.90;;;;;;5042083;28;19925;-76
2022/12/25 09:02:13;;;;;;;;;;;11.10;99.90;;;;;;5034775;28;20385;-76
2022/12/25 09:04:40;;;;;;;;;;;11.00;99.90;;;;;;5043245;28;19929;-78
2022/12/25 09:07:06;;;;;;;;;;;11.10;99.90;;;;;;5037481;28;19932;-77
2022/12/25 09:09:33;;;;;;;;;;;11.20;99.90;;;;;;5024534;28;19932;-77
2022/12/25 09:12:00;;;;;;;;;;;10.70;99.90;;;;;;5025338;28;19929;-77
2022/12/25 09:14:28;;;;;;;;;;;11.10;99.90;;;;;;5017726;28;20414;-76
2022/12/25 09:16:54;;;;;;;;;;;11.10;99.90;;;;;;5032248;28;19925;-76
2022/12/25 09:19:21;;;;;;;;;;;11.10;99.90;;;;;;5022993;28;20411;-75
2022/12/25 09:21:48;;;;;;;;;;;11.00;99.90;;;;;;5007734;28;19944;-77
2022/12/25 09:24:15;;;;;;;;;;;11.00;99.90;;;;;;5031340;28;19925;-78
2022/12/25 09:26:42;;;;;;;;;;;11.10;99.90;;;;;;5030294;28;19925;-77
2022/12/25 09:29:09;;;;;;;;;;;10.90;99.90;;;;;;5042106;28;19925;-78
2022/12/25 09:31:37;;;;;;;;;;;10.90;99.90;;;;;;5034786;28;20412;-77
2022/12/25 09:34:04;;;;;;;;;;;11.00;99.90;;;;;;5029460;28;19929;-77
2022/12/25 09:36:31;;;;;;;;;;;10.90;99.90;;;;;;5028822;28;19929;-77
2022/12/25 09:38:57;;;;;;;;;;;10.20;99.90;;;;;;5030065;28;19968;-77
2022/12/25 09:41:28;;;;;;;;;;;10.90;99.90;;;;;;5010988;28;19948;-76
2022/12/25 09:43:57;;;;;;;;;;;10.90;99.90;;;;;;5036446;28;19932;-75
2022/12/25 09:46:25;;;;;;;;;;;10.90;99.90;;;;;;5035661;28;19959;-76
2022/12/25 09:48:57;;;;;;;;;;;10.90;99.90;;;;;;5035335;28;20421;-76
2022/12/25 09:51:24;;;;;;;;;;;10.60;99.90;;;;;;5034968;28;20328;-77
2022/12/25 09:53:53;;;;;;;;;;;10.80;99.90;;;;;;5032852;28;19939;-76
2022/12/25 09:56:24;;;;;;;;;;;11.00;99.90;;;;;;5029914;28;19932;-77
2022/12/25 09:58:51;;;;;;;;;;;10.90;99.90;;;;;;5037299;28;19929;-78
2022/12/25 10:01:21;;;;;;;;;;;10.90;99.90;;;;;;5033034;28;20272;-78
2022/12/25 10:03:53;;;;;;;;;;;11.40;99.90;;;;;;5021960;28;20291;-78
2022/12/25 10:06:22;;;;;;;;;;;10.90;99.90;;;;;;5021530;28;19981;-77
2022/12/25 10:09:00;;;;;;;;;;;10.90;99.90;;;;;;5028188;28;19928;-76
2022/12/25 10:11:33;;;;;;;;;;;10.80;99.90;;;;;;5032698;28;19936;-76
2022/12/25 10:14:08;;;;;;;;;;;10.80;99.90;;;;;;5027086;28;19925;-76
2022/12/25 10:16:41;;;;;;;;;;;10.80;99.90;;;;;;5036852;28;19936;-75
2022/12/25 10:19:13;;;;;;;;;;;10.20;99.90;;;;;;5028951;28;20035;-76
2022/12/25 10:21:45;;;;;;;;;;;10.80;99.90;;;;;;5046864;28;19975;-77
2022/12/25 10:24:19;;;;;;;;;;;10.80;99.90;;;;;;5037568;28;19936;-77
2022/12/25 10:26:47;;;;;;;;;;;10.80;99.90;;;;;;5031802;28;19977;-77
2022/12/25 10:29:16;;;;;;;;;;;10.80;99.90;;;;;;5032647;28;19933;-77
2022/12/25 10:35:20;;;;;;;;;;;10.90;99.90;;;;;;5047725;28;19944;-77
2022/12/25 10:37:53;;;;;;;;;;;10.90;99.90;;;;;;5027112;28;19968;-78
2022/12/25 10:40:29;;;;;;;;;;;10.90;99.90;;;;;;5027989;28;19929;-79
2022/12/25 10:43:01;;;;;;;;;;;10.90;99.90;;;;;;5008390;28;20004;-79
2022/12/25 10:45:27;;;;;;;;;;;11.00;99.90;;;;;;5030628;28;20028;-78
2022/12/25 10:48:02;;;;;;;;;;;10.90;99.90;;;;;;5032220;28;19933;-78
2022/12/25 10:50:28;;;;;;;;;;;11.00;99.90;;;;;;5028115;28;19925;-78
2022/12/25 10:53:00;;;;;;;;;;;11.00;99.90;;;;;;5030635;28;19936;-78
2022/12/25 10:55:28;;;;;;;;;;;11.00;99.90;;;;;;5037773;28;19925;-80
2022/12/25 10:57:56;;;;;;;;;;;11.00;99.90;;;;;;5036407;28;19968;-78
2022/12/25 11:00:24;;;;;;;;;;;11.00;99.90;;;;;;5032941;28;20297;-78
2022/12/25 11:02:51;;;;;;;;;;;11.00;99.90;;;;;;5032275;28;20406;-78
2022/12/25 11:05:23;;;;;;;;;;;11.00;99.90;;;;;;5030414;28;19936;-78
2022/12/25 11:07:53;;;;;;;;;;;11.00;99.90;;;;;;5025596;28;19941;-80
2022/12/25 11:10:22;;;;;;;;;;;11.00;99.90;;;;;;5027058;28;19945;-80
2022/12/25 11:12:49;;;;;;;;;;;11.00;99.90;;;;;;5027506;28;19925;-78
2022/12/25 11:15:30;;;;;;;;;;;11.10;99.90;;;;;;5030816;28;19940;-78
2022/12/25 11:17:57;;;;;;;;;;;11.00;99.90;;;;;;5029023;28;19932;-76
2022/12/25 11:20:24;;;;;;;;;;;11.00;99.90;;;;;;5028698;28;19925;-78
2022/12/25 11:22:51;;;;;;;;;;;11.00;99.90;;;;;;5028734;28;19929;-77
2022/12/25 11:25:21;;;;;;;;;;;10.90;99.90;;;;;;5009510;28;21298;-79
2022/12/25 11:27:57;;;;;;;;;;;10.90;99.90;;;;;;5025015;28;20422;-77
2022/12/25 11:30:24;;;;;;;;;;;10.80;99.90;;;;;;5028764;28;20068;-79
2022/12/25 11:32:54;;;;;;;;;;;10.80;99.90;;;;;;5029522;28;19929;-76
2022/12/25 11:35:24;;;;;;;;;;;10.70;99.90;;;;;;5036081;28;19990;-78
2022/12/25 11:37:51;;;;;;;;;;;10.70;99.90;;;;;;5036116;28;19941;-78
2022/12/25 11:40:20;;;;;;;;;;;10.70;99.90;;;;;;5023294;28;19932;-76
2022/12/25 11:42:49;;;;;;;;;;;10.60;99.90;;;;;;5030588;28;19925;-77
2022/12/25 11:45:18;;;;;;;;;;;10.60;99.90;;;;;;5027989;28;20569;-77
2022/12/25 11:47:48;;;;;;;;;;;10.60;99.90;;;;;;5026947;28;20031;-76
2022/12/25 11:50:19;;;;;;;;;;;10.60;99.90;;;;;;5022663;28;19929;-78
2022/12/25 11:52:47;;;;;;;;;;;10.60;99.90;;;;;;5010108;28;20028;-75
2022/12/25 11:55:16;;;;;;;;;;;10.60;99.90;;;;;;5028041;28;19932;-76
2022/12/25 11:57:44;;;;;;;;;;;10.60;99.90;;;;;;5028727;28;20402;-78
2022/12/25 12:00:14;;;;;;;;;;;10.60;99.90;;;;;;5029760;28;19929;-77
2022/12/25 12:02:44;;;;;;;;;;;11.20;99.90;;;;;;5028695;28;19929;-77
2022/12/25 12:05:15;;;;;;;;;;;10.60;99.90;;;;;;5024921;28;20440;-77
2022/12/25 12:07:50;;;;;;;;;;;10.70;99.90;;;;;;5027531;28;19935;-77
2022/12/25 12:10:19;;;;;;;;;;;10.70;99.90;;;;;;5027541;28;19937;-77
2022/12/25 12:12:51;;;;;;;;;;;10.70;99.90;;;;;;5021436;28;19925;-76
2022/12/25 12:15:20;;;;;;;;;;;10.90;99.90;;;;;;5032545;28;19932;-77
2022/12/25 12:17:48;;;;;;;;;;;10.80;99.90;;;;;;5028269;28;19929;-77
2022/12/25 12:20:27;;;;;;;;;;;10.80;99.90;;;;;;5032761;28;20402;-77
2022/12/25 12:22:54;;;;;;;;;;;10.90;99.90;;;;;;5026593;28;19940;-77
2022/12/25 12:25:21;;;;;;;;;;;10.90;99.90;;;;;;5010395;28;20488;-78
2022/12/25 12:27:53;;;;;;;;;;;10.90;99.90;;;;;;5029778;28;20313;-78
2022/12/25 12:30:25;;;;;;;;;;;10.90;99.90;;;;;;5012724;28;19929;-78
2022/12/25 12:32:57;;;;;;;;;;;10.80;99.90;;;;;;5024415;28;19933;-82
2022/12/25 12:35:26;;;;;;;;;;;10.80;99.90;;;;;;5024308;28;19935;-78
2022/12/25 12:37:54;;;;;;;;;;;10.80;99.90;;;;;;5027366;28;19925;-80
2022/12/25 12:40:23;;;;;;;;;;;10.80;99.90;;;;;;5025100;28;20474;-78
2022/12/25 12:42:51;;;;;;;;;;;11.60;99.90;;;;;;5023290;28;19932;-77
2022/12/25 12:45:18;;;;;;;;;;;10.90;99.90;;;;;;5019185;28;19929;-78
2022/12/25 12:47:47;;;;;;;;;;;10.30;99.90;;;;;;5017328;28;20019;-84
2022/12/25 12:50:29;;;;;;;;;;;10.80;99.90;;;;;;5030178;28;20027;-78
2022/12/25 12:52:57;;;;;;;;;;;10.80;99.90;;;;;;5028797;28;19932;-78
2022/12/25 12:55:30;;;;;;;;;;;10.80;99.90;;;;;;5030142;28;19961;-81
2022/12/25 12:57:58;;;;;;;;;;;10.80;99.90;;;;;;5023479;28;19925;-77
2022/12/25 13:00:26;;;;;;;;;;;10.80;99.90;;;;;;5031947;28;19932;-76
2022/12/25 13:03:14;;;;;;;;;;;10.80;99.90;;;;;;5034757;28;19930;-77
2022/12/25 13:05:46;;;;;;;;;;;10.80;99.90;;;;;;5023980;28;20046;-77
2022/12/25 13:08:22;;;;;;;;;;;10.80;99.90;;;;;;5031626;28;20016;-78
2022/12/25 13:10:50;;;;;;;;;;;10.90;99.90;;;;;;5018023;28;19930;-81
2022/12/25 13:13:20;;;;;;;;;;;10.90;99.90;;;;;;5059216;28;19998;-81
2022/12/25 13:15:48;;;;;;;;;;;10.90;99.90;;;;;;5059082;28;19913;-81
2022/12/25 13:18:14;;;;;;;;;;;10.90;99.90;;;;;;5056040;28;19960;-81
2022/12/25 13:20:45;;;;;;;;;;;10.90;99.90;;;;;;5014388;28;19925;-77
2022/12/25 13:23:23;;;;;;;;;;;10.90;99.90;;;;;;5030650;28;19926;-76
2022/12/25 13:25:51;;;;;;;;;;;10.90;99.90;;;;;;5030464;28;20310;-76
2022/12/25 13:28:23;;;;;;;;;;;10.90;99.90;;;;;;5030439;28;19925;-78
2022/12/25 13:30:50;;;;;;;;;;;10.80;99.90;;;;;;5030808;28;19929;-77
2022/12/25 13:33:18;;;;;;;;;;;10.80;99.90;;;;;;5029540;28;19925;-81
2022/12/25 13:35:47;;;;;;;;;;;11.40;99.90;;;;;;5025584;28;19921;-79
2022/12/25 13:38:15;;;;;;;;;;;10.80;99.90;;;;;;5040059;28;19929;-79
2022/12/25 13:42:04;;;;;;;;;;;10.80;99.90;;;;;;5031355;28;19932;-76
2022/12/25 13:43:35;;;;;;;;;;;10.80;99.90;;;;;;5026442;28;20016;-77
2022/12/25 13:46:01;;;;;;;;;;;10.80;99.90;;;;;;5030650;28;20512;-78
2022/12/25 13:48:30;;;;;;;;;;;10.80;99.90;;;;;;5031538;28;19925;-79
2022/12/25 13:50:59;;;;;;;;;;;10.80;99.90;;;;;;5023190;28;19959;-77
2022/12/25 13:53:26;;;;;;;;;;;10.80;99.90;;;;;;5030645;28;19925;-80
2022/12/25 13:55:54;;;;;;;;;;;10.90;99.90;;;;;;5027531;28;19929;-78
2022/12/25 13:58:23;;;;;;;;;;;10.90;99.90;;;;;;5016354;28;20301;-77
2022/12/25 14:00:52;;;;;;;;;;;10.90;99.90;;;;;;5003156;28;20310;-77
2022/12/25 14:03:21;;;;;;;;;;;10.90;99.90;;;;;;5035870;28;19925;-79
2022/12/25 14:05:55;;;;;;;;;;;10.90;99.90;;;;;;5030597;28;19925;-78
2022/12/25 14:08:25;;;;;;;;;;;10.90;99.90;;;;;;5023839;28;20694;-78
2022/12/25 14:10:52;;;;;;;;;;;11.00;99.90;;;;;;5021075;28;19929;-78
2022/12/25 14:13:20;;;;;;;;;;;11.00;99.90;;;;;;5029102;28;20317;-77
2022/12/25 14:15:48;;;;;;;;;;;11.00;99.90;;;;;;5028944;28;19936;-77
2022/12/25 14:18:15;;;;;;;;;;;11.00;99.90;;;;;;5029310;28;19940;-80
2022/12/25 14:20:53;;;;;;;;;;;11.10;99.90;;;;;;5030131;28;20693;-76
2022/12/25 14:23:20;;;;;;;;;;;11.10;99.90;;;;;;5028806;28;20012;-78
2022/12/25 14:25:49;;;;;;;;;;;11.00;99.90;;;;;;5022171;28;19929;-77
2022/12/25 14:28:18;;;;;;;;;;;11.00;99.90;;;;;;5028980;28;19987;-77
2022/12/25 14:30:45;;;;;;;;;;;10.80;99.90;;;;;;5034956;28;19929;-76
2022/12/25 14:33:14;;;;;;;;;;;11.10;99.90;;;;;;5474768;22;19954;-78
2022/12/25 14:35:41;;;;;;;;;;;10.90;99.90;;;;;;5057936;28;20020;-81
2022/12/25 14:38:15;;;;;;;;;;;11.20;99.90;;;;;;5069016;28;19946;-80
2022/12/25 14:40:44;;;;;;;;;;;11.00;99.90;;;;;;5058895;28;20160;-76
2022/12/25 14:43:20;;;;;;;;;;;11.80;99.90;;;;;;5059742;28;20025;-77
2022/12/25 14:48:24;;;;;;;;;;;11.00;99.90;;;;;;5039157;28;19929;-75
2022/12/25 14:50:55;;;;;;;;;;;12.40;99.90;;;;;;5025294;28;19925;-75
2022/12/25 14:53:22;;;;;;;;;;;11.20;99.90;;;;;;5018304;28;19935;-78
2022/12/25 14:55:51;;;;;;;;;;;12.20;99.90;;;;;;5026535;28;19963;-77
2022/12/25 14:58:21;;;;;;;;;;;12.10;99.90;;;;;;5012894;28;19937;-78
2022/12/25 15:00:53;;;;;;;;;;;11.10;99.90;;;;;;5037192;28;20391;-75
2022/12/25 15:03:24;;;;;;;;;;;11.60;99.90;;;;;;5015637;28;20652;-76
2022/12/25 15:05:57;;;;;;;;;;;11.10;99.90;;;;;;5012498;28;19937;-75
2022/12/25 15:08:25;;;;;;;;;;;11.20;99.90;;;;;;5033587;28;19925;-77
2022/12/25 15:10:51;;;;;;;;;;;11.10;99.90;;;;;;5035750;28;19948;-77
2022/12/25 15:13:20;;;;;;;;;;;11.10;99.90;;;;;;5038802;28;19987;-76
2022/12/25 15:15:53;;;;;;;;;;;12.00;99.90;;;;;;5011688;28;19936;-75
2022/12/25 15:18:21;;;;;;;;;;;11.10;99.90;;;;;;5017245;28;20246;-77
2022/12/25 15:20:51;;;;;;;;;;;11.10;99.90;;;;;;5035808;28;19925;-75
2022/12/25 15:23:18;;;;;;;;;;;12.50;99.90;;;;;;5022394;28;20377;-75
2022/12/25 15:25:46;;;;;;;;;;;11.10;99.90;;;;;;5009265;28;19935;-75
2022/12/25 15:28:12;;;;;;;;;;;11.20;99.90;;;;;;5027803;28;20377;-75
2022/12/25 15:30:41;;;;;;;;;;;11.20;99.90;;;;;;5022976;28;19952;-76
2022/12/25 15:33:10;;;;;;;;;;;11.20;99.90;;;;;;5016909;28;19933;-75
2022/12/25 15:35:37;;;;;;;;;;;11.20;99.90;;;;;;4998357;28;19936;-75
2022/12/25 15:38:04;;;;;;;;;;;11.20;99.90;;;;;;5025978;28;20240;-75
2022/12/25 15:40:31;;;;;;;;;;;11.20;99.90;;;;;;5019496;28;20317;-75
2022/12/25 15:42:58;;;;;;;;;;;11.20;99.90;;;;;;5018219;28;20028;-75
2022/12/25 15:45:26;;;;;;;;;;;11.20;99.90;;;;;;4998391;28;19933;-77
2022/12/25 15:47:54;;;;;;;;;;;11.20;99.90;;;;;;5009657;28;19952;-78
2022/12/25 15:50:21;;;;;;;;;;;11.20;99.90;;;;;;4998057;28;19948;-75
2022/12/25 15:52:48;;;;;;;;;;;11.20;99.90;;;;;;5008304;28;19932;-76
2022/12/25 15:55:15;;;;;;;;;;;10.90;99.90;;;;;;5019755;28;19932;-76
2022/12/25 15:57:44;;;;;;;;;;;11.30;99.90;;;;;;5000864;28;19933;-76
2022/12/25 16:00:14;;;;;;;;;;;12.50;99.90;;;;;;5020875;28;20201;-76
2022/12/25 16:02:41;;;;;;;;;;;11.30;99.90;;;;;;5016337;28;19933;-76
2022/12/25 16:05:09;;;;;;;;;;;11.30;99.90;;;;;;4995968;28;19940;-76
2022/12/25 16:07:36;;;;;;;;;;;11.40;99.90;;;;;;5012377;28;19983;-76
2022/12/25 16:10:03;;;;;;;;;;;11.30;99.90;;;;;;5014621;28;20237;-76
2022/12/25 16:12:30;;;;;;;;;;;11.40;99.90;;;;;;5014788;28;19941;-76
2022/12/25 16:14:57;;;;;;;;;;;11.40;99.90;;;;;;5015761;28;19929;-76